Time;durP1;ratioP1;P1;durP2;ratioP2;P2;SDS_P1;SDS_P2;PMS_P1;PMS_P2;Temp;Humidity;BMP_temperature;BMP_pressure;BME280_temperature;BME280_humidity;BME280_pressure;Samples;Min_cycle;Max_cycle;Signal;HPM_P1;HPM_P2
2023/08/20 00:01:56;;;;;;;7.13;2.53;;;;;;;20.43;100.00;101979.38;5203120;28;20028;-71
2023/08/20 00:04:28;;;;;;;10.47;2.70;;;;;;;20.36;100.00;101972.88;5231594;28;20064;-72
2023/08/20 00:06:59;;;;;;;6.90;3.07;;;;;;;20.34;100.00;101981.00;5218980;28;20064;-71
2023/08/20 00:09:34;;;;;;;6.07;2.40;;;;;;;20.39;100.00;101977.94;5231966;28;20045;-73
2023/08/20 00:12:05;;;;;;;10.18;2.60;;;;;;;20.37;100.00;101970.09;5198364;28;20455;-71
2023/08/20 00:14:58;;;;;;;8.30;2.80;;;;;;;20.51;100.00;101973.41;5220939;28;20121;-70
2023/08/20 00:17:30;;;;;;;6.83;2.13;;;;;;;20.28;100.00;101961.06;5219223;28;20038;-72
2023/08/20 00:20:12;;;;;;;8.33;2.57;;;;;;;20.34;100.00;101965.03;5226445;28;20032;-71
2023/08/20 00:22:45;;;;;;;10.97;2.70;;;;;;;20.28;100.00;101957.59;5213843;28;20029;-71
2023/08/20 00:25:17;;;;;;;8.03;2.93;;;;;;;20.07;100.00;101969.03;5214142;28;20029;-71
2023/08/20 00:27:48;;;;;;;9.27;2.53;;;;;;;19.97;100.00;101968.91;5231516;28;20516;-71
2023/08/20 00:30:20;;;;;;;9.70;2.90;;;;;;;19.77;100.00;101968.75;5230312;28;20037;-70
2023/08/20 00:32:51;;;;;;;9.03;3.03;;;;;;;19.94;100.00;101972.69;5228184;28;20033;-72
2023/08/20 00:35:22;;;;;;;7.37;2.50;;;;;;;19.99;100.00;101971.44;5213237;28;20464;-72
2023/08/20 00:37:54;;;;;;;8.10;2.90;;;;;;;19.95;100.00;101981.47;5230542;28;20029;-71
2023/08/20 00:40:25;;;;;;;6.83;2.80;;;;;;;19.85;100.00;101988.53;5230990;28;20460;-71
2023/08/20 00:42:56;;;;;;;7.20;2.60;;;;;;;20.12;100.00;101992.59;5231385;28;20025;-71
2023/08/20 00:45:28;;;;;;;5.87;2.70;;;;;;;20.07;100.00;101995.63;5206453;28;20033;-72
2023/08/20 00:47:59;;;;;;;9.23;3.03;;;;;;;20.20;100.00;102006.09;5231788;28;20034;-72
2023/08/20 00:50:30;;;;;;;9.03;3.10;;;;;;;19.94;100.00;102011.72;5231134;28;20033;-73
2023/08/20 00:53:02;;;;;;;8.47;2.83;;;;;;;20.18;100.00;102008.03;5205835;28;20026;-71
2023/08/20 00:55:33;;;;;;;7.23;2.67;;;;;;;20.00;100.00;102010.38;5231735;28;20563;-71
2023/08/20 00:58:05;;;;;;;11.70;2.60;;;;;;;19.94;100.00;102012.56;5213063;28;20025;-71
2023/08/20 01:00:36;;;;;;;8.00;3.33;;;;;;;19.97;100.00;102016.78;5231820;28;20112;-72
2023/08/20 01:03:08;;;;;;;10.50;2.60;;;;;;;19.90;100.00;102021.75;5215980;28;20040;-71
2023/08/20 01:05:48;;;;;;;6.73;2.40;;;;;;;20.07;100.00;102033.69;5272490;22;22564;-72
2023/08/20 01:08:33;;;;;;;8.93;2.87;;;;;;;20.31;100.00;102039.78;5226496;28;20065;-71
2023/08/20 01:11:16;;;;;;;9.17;3.43;;;;;;;20.33;100.00;102039.66;5241733;28;20071;-71
2023/08/20 01:13:47;;;;;;;8.17;2.33;;;;;;;20.20;100.00;102048.63;5251061;28;20471;-71
2023/08/20 01:16:18;;;;;;;7.33;2.90;;;;;;;20.00;100.00;102045.75;5246639;28;20072;-71
2023/08/20 01:18:50;;;;;;;5.40;2.13;;;;;;;20.15;100.00;102059.66;5238371;28;20104;-71
2023/08/20 01:21:39;;;;;;;5.70;2.60;;;;;;;20.38;100.00;102048.09;5239732;28;20029;-71
2023/08/20 01:24:49;;;;;;;11.13;3.17;;;;;;;20.35;100.00;102041.19;5219581;28;20028;-72
2023/08/20 01:28:06;;;;;;;7.40;3.37;;;;;;;20.52;100.00;102041.63;5166106;28;20229;-72
2023/08/20 01:30:37;;;;;;;7.27;2.83;;;;;;;20.37;100.00;102033.13;5209626;28;20041;-72
2023/08/20 01:33:11;;;;;;;7.57;2.60;;;;;;;20.21;100.00;102034.38;5232596;28;20041;-72
2023/08/20 01:35:42;;;;;;;9.02;2.80;;;;;;;20.43;100.00;102040.56;5232260;28;20171;-72
2023/08/20 01:38:13;;;;;;;10.20;3.30;;;;;;;;;;5231291;28;20029;-72
2023/08/20 01:40:45;;;;;;;7.73;2.57;;;;;;;20.48;100.00;102037.50;5214225;28;20506;-72
2023/08/20 01:43:16;;;;;;;9.53;2.57;;;;;;;20.43;100.00;102038.75;5232042;28;20025;-71
2023/08/20 01:45:47;;;;;;;9.57;2.50;;;;;;;20.49;100.00;102041.88;5248760;28;20041;-71
2023/08/20 01:48:19;;;;;;;6.23;3.17;;;;;;;20.49;100.00;102032.06;5255362;28;20112;-70
2023/08/20 01:50:50;;;;;;;9.07;2.80;;;;;;;20.47;100.00;102034.03;5254909;28;20032;-73
2023/08/20 01:53:22;;;;;;;12.70;3.70;;;;;;;20.41;100.00;102039.84;5255029;28;20059;-71
2023/08/20 01:55:53;;;;;;;8.70;3.13;;;;;;;20.29;100.00;102044.38;5253386;28;20034;-71
2023/08/20 01:58:25;;;;;;;6.80;3.00;;;;;;;20.51;100.00;102046.09;5224648;28;20841;-72
2023/08/20 02:00:56;;;;;;;9.57;3.40;;;;;;;20.53;100.00;102052.13;5254991;28;20032;-72
2023/08/20 02:03:27;;;;;;;7.67;3.03;;;;;;;20.61;100.00;102053.31;5236957;28;20029;-71
2023/08/20 02:05:59;;;;;;;12.83;3.80;;;;;;;20.60;100.00;102060.44;5239078;28;20052;-70
2023/08/20 02:08:30;;;;;;;8.63;3.53;;;;;;;20.55;100.00;102063.50;5223828;28;20024;-72
2023/08/20 02:11:04;;;;;;;9.50;3.73;;;;;;;20.67;100.00;102060.75;5236298;28;20040;-71
2023/08/20 02:13:36;;;;;;;12.20;3.87;;;;;;;20.46;100.00;102064.25;5253194;28;20063;-71
2023/08/20 02:16:07;;;;;;;11.37;3.50;;;;;;;20.58;100.00;102067.69;5253106;28;20474;-70
2023/08/20 02:18:38;;;;;;;7.63;3.10;;;;;;;20.54;100.00;102066.28;5240046;28;20048;-70
2023/08/20 02:21:10;;;;;;;11.17;3.30;;;;;;;20.54;100.00;102074.28;5253010;28;20041;-72
2023/08/20 02:23:41;;;;;;;9.20;3.47;;;;;;;20.59;100.00;102073.88;5239673;28;20032;-72
2023/08/20 02:26:12;;;;;;;10.43;4.33;;;;;;;20.37;100.00;102071.19;5236182;28;20597;-71
2023/08/20 02:28:44;;;;;;;9.23;3.87;;;;;;;20.31;100.00;102075.22;5240324;28;20017;-71
2023/08/20 02:31:15;;;;;;;8.77;3.10;;;;;;;20.46;100.00;102068.72;5254229;28;20490;-71
2023/08/20 02:33:47;;;;;;;10.43;2.80;;;;;;;20.39;100.00;102066.59;5249641;28;20074;-71
2023/08/20 02:36:18;;;;;;;8.10;3.13;;;;;;;20.34;100.00;102062.59;5244206;28;20485;-72
2023/08/20 02:38:49;;;;;;;9.37;3.20;;;;;;;20.40;100.00;102056.78;5254221;28;20070;-70
2023/08/20 02:41:21;;;;;;;12.80;3.97;;;;;;;20.40;100.00;102052.28;5225248;28;20148;-71
2023/08/20 02:43:52;;;;;;;10.17;3.20;;;;;;;20.36;100.00;102055.34;5242807;28;20112;-72
2023/08/20 02:46:23;;;;;;;9.63;3.50;;;;;;;20.27;100.00;102055.16;5235991;28;20032;-70
2023/08/20 02:48:55;;;;;;;9.97;3.00;;;;;;;20.15;100.00;102054.34;5240166;28;20035;-70
2023/08/20 02:51:26;;;;;;;9.13;3.33;;;;;;;20.25;100.00;102059.75;5242717;28;20037;-71
2023/08/20 02:53:58;;;;;;;7.77;2.83;;;;;;;20.07;100.00;102059.47;5248597;28;20021;-70
2023/08/20 02:56:29;;;;;;;5.77;3.10;;;;;;;20.08;100.00;102053.16;5233471;28;20471;-71
2023/08/20 02:59:00;;;;;;;8.47;2.90;;;;;;;20.01;100.00;102059.91;5229279;28;20112;-73
2023/08/20 03:01:32;;;;;;;12.00;3.57;;;;;;;19.97;100.00;102058.47;5243177;28;20017;-73
2023/08/20 03:04:04;;;;;;;9.13;2.97;;;;;;;19.94;100.00;102049.78;5252815;28;20029;-72
2023/08/20 03:06:35;;;;;;;9.83;2.80;;;;;;;19.77;100.00;102043.19;5242469;28;20055;-71
2023/08/20 03:09:06;;;;;;;11.40;2.70;;;;;;;19.90;100.00;102045.66;5252882;28;20040;-72
2023/08/20 03:11:38;;;;;;;12.43;3.70;;;;;;;19.66;100.00;102045.84;5241640;28;20025;-71
2023/08/20 03:14:09;;;;;;;8.30;3.57;;;;;;;19.79;100.00;102041.22;5253934;28;20032;-71
2023/08/20 03:16:40;;;;;;;10.43;2.77;;;;;;;19.75;100.00;102050.41;5246093;28;20100;-71
2023/08/20 03:19:15;;;;;;;8.07;2.40;;;;;;;19.48;100.00;102038.34;5247302;28;20520;-72
2023/08/20 03:21:46;;;;;;;6.20;2.63;;;;;;;19.64;100.00;102037.13;5248615;28;20021;-71
2023/08/20 03:24:17;;;;;;;8.67;2.97;;;;;;;19.54;100.00;102040.53;5243407;28;20078;-71
2023/08/20 03:26:48;;;;;;;7.83;2.90;;;;;;;19.57;100.00;102048.25;5253396;28;20024;-71
2023/08/20 03:29:20;;;;;;;8.07;2.80;;;;;;;19.55;100.00;102049.34;5235116;28;20139;-71
2023/08/20 03:31:51;;;;;;;8.13;3.07;;;;;;;19.39;100.00;102042.59;5250493;28;20718;-71
2023/08/20 03:34:22;;;;;;;10.53;3.37;;;;;;;19.47;100.00;102042.00;5242173;28;20120;-71
2023/08/20 03:36:54;;;;;;;7.00;3.13;;;;;;;19.52;100.00;102047.78;5250088;28;20024;-70
2023/08/20 03:39:25;;;;;;;6.80;2.73;;;;;;;19.37;100.00;102041.03;5231939;28;20591;-71
2023/08/20 03:41:57;;;;;;;11.37;3.93;;;;;;;19.17;100.00;102040.78;5232214;28;20033;-71
2023/08/20 03:44:29;;;;;;;11.63;3.23;;;;;;;19.19;100.00;102038.84;5240692;28;20107;-71
2023/08/20 03:47:01;;;;;;;6.40;2.40;;;;;;;19.12;100.00;102042.94;5250312;28;20040;-70
2023/08/20 03:49:32;;;;;;;7.13;3.10;;;;;;;19.18;100.00;102039.81;5240868;28;20407;-71
2023/08/20 03:52:06;;;;;;;5.20;2.17;;;;;;;19.19;100.00;102044.16;5250707;28;20640;-70
2023/08/20 03:54:37;;;;;;;9.13;3.05;;;;;;;18.99;100.00;102057.97;5253062;28;20020;-71
2023/08/20 03:57:08;;;;;;;10.30;2.97;;;;;;;19.00;100.00;102053.53;5238541;28;20044;-71
2023/08/20 03:59:40;;;;;;;6.80;2.53;;;;;;;19.19;100.00;102054.78;5252672;28;20056;-71
2023/08/20 04:02:11;;;;;;;7.57;2.53;;;;;;;19.07;100.00;102056.56;5238674;28;20060;-72
2023/08/20 04:04:42;;;;;;;11.23;3.40;;;;;;;19.00;100.00;102048.22;5238056;28;20021;-72
2023/08/20 04:07:14;;;;;;;13.70;3.80;;;;;;;18.99;100.00;102055.31;5251038;28;20045;-72
2023/08/20 04:09:45;;;;;;;11.70;3.57;;;;;;;19.08;100.00;102059.09;5245588;28;20638;-72
2023/08/20 04:12:16;;;;;;;6.10;2.90;;;;;;;19.27;100.00;102067.47;5244388;28;20025;-72
2023/08/20 04:14:48;;;;;;;11.60;3.47;;;;;;;19.08;100.00;102068.84;5246343;28;20029;-70
2023/08/20 04:17:19;;;;;;;7.03;2.77;;;;;;;19.11;100.00;102071.31;5243813;28;20052;-72
2023/08/20 04:19:50;;;;;;;8.00;3.67;;;;;;;19.07;100.00;102075.13;5247019;28;20036;-71
2023/08/20 04:22:22;;;;;;;10.00;3.03;;;;;;;18.98;100.00;102071.38;5239614;28;20104;-70
2023/08/20 04:24:53;;;;;;;8.90;2.73;;;;;;;19.01;100.00;102070.31;5250763;28;20029;-72
2023/08/20 04:27:24;;;;;;;8.30;2.70;;;;;;;18.99;100.00;102070.41;5239700;28;20037;-70
2023/08/20 04:29:56;;;;;;;7.97;3.00;;;;;;;18.82;100.00;102071.69;5218869;28;20419;-71
2023/08/20 04:32:27;;;;;;;7.20;2.70;;;;;;;18.88;100.00;102075.69;5231364;28;20033;-71
2023/08/20 04:34:59;;;;;;;6.77;2.50;;;;;;;18.95;100.00;102079.59;5246013;28;20549;-71
2023/08/20 04:37:30;;;;;;;7.23;3.17;;;;;;;18.93;100.00;102090.31;5245369;28;20033;-74
2023/08/20 04:40:04;;;;;;;9.20;3.77;;;;;;;18.92;100.00;102082.47;5249771;28;20060;-72
2023/08/20 04:42:36;;;;;;;10.95;4.05;;;;;;;18.94;100.00;102088.50;5242293;28;20021;-71
2023/08/20 04:45:08;;;;;;;7.60;2.97;;;;;;;18.86;100.00;102084.63;5242450;28;20096;-72
2023/08/20 04:47:39;;;;;;;6.60;2.73;;;;;;;18.79;100.00;102080.75;5249331;28;20430;-72
2023/08/20 04:50:10;;;;;;;8.40;3.47;;;;;;;18.62;100.00;102071.41;5248443;28;20091;-71
2023/08/20 04:52:42;;;;;;;6.50;3.00;;;;;;;18.59;100.00;102079.56;5217521;28;20120;-71
2023/08/20 04:55:15;;;;;;;7.27;3.13;;;;;;;18.91;100.00;102083.41;5229280;28;20028;-72
2023/08/20 04:57:46;;;;;;;8.40;3.07;;;;;;;18.83;100.00;102076.88;5255697;28;20566;-71
2023/08/20 05:00:18;;;;;;;7.07;3.20;;;;;;;18.82;100.00;102082.31;5243795;28;20032;-72
2023/08/20 05:02:49;;;;;;;5.67;3.00;;;;;;;18.80;100.00;102095.69;5235654;28;20105;-71
2023/08/20 05:05:20;;;;;;;7.10;3.20;;;;;;;18.88;100.00;102086.31;5244895;28;20028;-73
2023/08/20 05:07:52;;;;;;;5.57;3.00;;;;;;;18.60;100.00;102084.78;5255353;28;20508;-72
2023/08/20 05:10:23;;;;;;;12.47;4.87;;;;;;;18.83;100.00;102086.69;5245493;28;20036;-73
2023/08/20 05:12:54;;;;;;;9.07;2.73;;;;;;;18.82;100.00;102099.09;5248803;28;20022;-71
2023/08/20 05:15:25;;;;;;;7.70;3.43;;;;;;;18.81;100.00;102084.13;5244959;28;20032;-70
2023/08/20 05:17:57;;;;;;;8.27;3.10;;;;;;;18.84;100.00;102089.22;5241710;28;20503;-70
2023/08/20 05:20:28;;;;;;;8.20;4.27;;;;;;;18.94;100.00;102091.16;5247825;28;20056;-70
2023/08/20 05:22:59;;;;;;;7.23;3.63;;;;;;;18.97;100.00;102096.25;5235268;28;20022;-71
2023/08/20 05:25:31;;;;;;;8.30;3.47;;;;;;;19.02;100.00;102098.53;5233707;28;20089;-71
2023/08/20 05:28:02;;;;;;;11.17;3.90;;;;;;;18.93;100.00;102110.69;5235382;28;20025;-71
2023/08/20 05:30:34;;;;;;;9.40;3.47;;;;;;;18.99;100.00;102107.56;5234419;28;20021;-72
2023/08/20 05:33:05;;;;;;;7.73;3.50;;;;;;;18.99;100.00;102104.91;5234548;28;20055;-72
2023/08/20 05:35:37;;;;;;;6.00;3.23;;;;;;;19.01;100.00;102105.66;5220075;28;20032;-71
2023/08/20 05:38:08;;;;;;;7.73;3.63;;;;;;;18.97;100.00;102098.91;5216643;28;20041;-72
2023/08/20 05:40:39;;;;;;;9.27;3.83;;;;;;;18.98;100.00;102093.47;5234308;28;20455;-72
2023/08/20 05:43:11;;;;;;;7.50;4.10;;;;;;;18.95;100.00;102100.81;5234519;28;20030;-70
2023/08/20 05:45:42;;;;;;;8.60;3.77;;;;;;;19.02;100.00;102107.34;5234762;28;20093;-72
2023/08/20 05:48:13;;;;;;;7.83;3.87;;;;;;;19.09;100.00;102107.72;5216659;28;20025;-70
2023/08/20 05:50:45;;;;;;;8.50;3.47;;;;;;;19.15;100.00;102103.81;5233148;28;20032;-71
2023/08/20 05:53:16;;;;;;;12.73;4.23;;;;;;;19.28;100.00;102111.66;5234843;28;20052;-72
2023/08/20 05:55:47;;;;;;;9.30;3.80;;;;;;;19.21;100.00;102096.19;5234086;28;20547;-71
2023/08/20 05:58:19;;;;;;;12.00;4.00;;;;;;;19.25;100.00;102104.78;5216724;28;20029;-70
2023/08/20 06:00:50;;;;;;;13.17;5.27;;;;;;;19.31;100.00;102106.94;5234305;28;20025;-72
2023/08/20 06:03:21;;;;;;;11.33;4.40;;;;;;;19.40;100.00;102109.84;5234110;28;20056;-70
2023/08/20 06:05:52;;;;;;;8.37;4.27;;;;;;;19.41;100.00;102101.75;5233750;28;20499;-71
2023/08/20 06:08:24;;;;;;;13.83;4.70;;;;;;;19.43;100.00;102104.28;5233895;28;20029;-71
2023/08/20 06:10:55;;;;;;;9.33;3.90;;;;;;;19.38;100.00;102106.47;5234835;28;20059;-72
2023/08/20 06:13:27;;;;;;;12.73;3.57;;;;;;;19.47;100.00;102100.44;5233933;28;20056;-72
2023/08/20 06:15:58;;;;;;;12.10;4.10;;;;;;;19.51;100.00;102101.06;5221379;28;20112;-73
2023/08/20 06:18:29;;;;;;;20.63;3.97;;;;;;;19.52;100.00;102102.72;5239491;28;20654;-72
2023/08/20 06:21:01;;;;;;;9.73;4.20;;;;;;;19.59;100.00;102110.09;5252663;28;20124;-72
2023/08/20 06:23:32;;;;;;;8.77;3.60;;;;;;;19.52;100.00;102103.59;5235912;28;20033;-71
2023/08/20 06:26:03;;;;;;;11.23;3.20;;;;;;;19.58;100.00;102102.25;5244961;28;20017;-72
2023/08/20 06:28:35;;;;;;;13.23;3.80;;;;;;;19.62;100.00;102101.03;5254499;28;20105;-73
2023/08/20 06:31:06;;;;;;;9.97;3.50;;;;;;;19.71;100.00;102108.28;5254298;28;20091;-72
2023/08/20 06:33:38;;;;;;;14.70;3.57;;;;;;;19.65;100.00;102108.78;5239995;28;20035;-72
2023/08/20 06:36:09;;;;;;;17.07;4.03;;;;;;;19.80;100.00;102114.69;5243870;28;20025;-69
2023/08/20 06:38:41;;;;;;;16.50;4.07;;;;;;;19.82;100.00;102115.41;5248607;28;20025;-70
2023/08/20 06:41:12;;;;;;;11.83;3.97;;;;;;;19.88;100.00;102111.41;5244293;28;20401;-72
2023/08/20 06:43:44;;;;;;;14.20;4.00;;;;;;;19.87;100.00;102114.19;5255092;28;20127;-70
2023/08/20 06:46:15;;;;;;;17.57;6.57;;;;;;;19.88;100.00;102113.25;5255067;28;20079;-70
2023/08/20 06:48:46;;;;;;;12.77;3.97;;;;;;;19.98;100.00;102114.19;5237071;28;20029;-70
2023/08/20 06:51:21;;;;;;;14.90;5.00;;;;;;;20.16;100.00;102124.34;5220828;28;20044;-70
2023/08/20 06:53:52;;;;;;;15.37;4.37;;;;;;;20.09;100.00;102131.94;5226305;28;20492;-71
2023/08/20 06:56:24;;;;;;;18.50;5.67;;;;;;;20.12;100.00;102120.22;5238665;28;20033;-70
2023/08/20 06:58:55;;;;;;;11.60;4.77;;;;;;;20.12;100.00;102114.91;5218753;28;20053;-70
2023/08/20 07:01:26;;;;;;;12.27;4.70;;;;;;;20.14;100.00;102115.63;5218232;28;20034;-71
2023/08/20 07:03:58;;;;;;;15.60;5.63;;;;;;;20.23;100.00;102124.69;5217098;28;20026;-71
2023/08/20 07:06:29;;;;;;;11.53;5.17;;;;;;;20.30;100.00;102124.06;5208346;28;20035;-71
2023/08/20 07:09:00;;;;;;;10.37;4.33;;;;;;;20.27;100.00;102118.97;5200108;28;20034;-72
2023/08/20 07:11:33;;;;;;;11.70;4.77;;;;;;;20.34;100.00;102124.66;5200091;28;20062;-71
2023/08/20 07:14:04;;;;;;;12.80;4.60;;;;;;;20.46;100.00;102133.44;5193533;28;20129;-72
2023/08/20 07:16:35;;;;;;;15.77;4.30;;;;;;;20.62;100.00;102132.16;5198343;28;20044;-71
2023/08/20 07:19:07;;;;;;;10.83;4.43;;;;;;;20.72;100.00;102127.75;5229150;28;20139;-73
2023/08/20 07:21:38;;;;;;;10.23;3.60;;;;;;;20.89;100.00;102133.50;5213901;28;20132;-72
2023/08/20 07:24:09;;;;;;;12.27;4.97;;;;;;;21.12;100.00;102134.25;5214450;28;20038;-70
2023/08/20 07:26:41;;;;;;;10.60;4.83;;;;;;;21.23;100.00;102128.00;5207958;28;20044;-71
2023/08/20 07:29:12;;;;;;;7.27;3.90;;;;;;;21.42;100.00;102125.59;5212759;28;20582;-71
2023/08/20 07:31:43;;;;;;;9.00;3.70;;;;;;;21.69;100.00;102125.00;5208713;28;20121;-71
2023/08/20 07:34:15;;;;;;;14.63;4.40;;;;;;;21.87;100.00;102133.22;5228986;28;20025;-72
2023/08/20 07:36:47;;;;;;;11.27;3.70;;;;;;;22.14;100.00;102130.91;5213791;28;20080;-71
2023/08/20 07:39:18;;;;;;;12.43;3.70;;;;;;;22.63;100.00;102132.81;5203319;28;20026;-72
2023/08/20 07:41:49;;;;;;;9.77;4.57;;;;;;;22.99;100.00;102126.03;5214913;28;20601;-71
2023/08/20 07:44:21;;;;;;;9.02;3.83;;;;;;;23.78;100.00;102136.47;5216223;28;20044;-73
2023/08/20 07:46:52;;;;;;;10.93;5.25;;;;;;;24.31;100.00;102136.75;5211165;28;20026;-72
2023/08/20 07:49:23;;;;;;;10.10;3.78;;;;;;;25.00;100.00;102141.53;5214483;28;20065;-72
2023/08/20 07:51:55;;;;;;;8.50;4.00;;;;;;;25.78;100.00;102142.63;5211272;28;20428;-72
2023/08/20 07:54:28;;;;;;;8.23;3.13;;;;;;;26.15;100.00;102132.47;5219173;28;20029;-73
2023/08/20 07:56:59;;;;;;;9.45;3.08;;;;;;;26.84;100.00;102157.38;5197131;28;20026;-72
2023/08/20 07:59:31;;;;;;;10.18;2.80;;;;;;;27.53;100.00;102151.53;5214746;28;20044;-73
2023/08/20 08:02:02;;;;;;;10.13;3.17;;;;;;;28.11;100.00;102158.53;5211452;28;20665;-72
2023/08/20 08:04:34;;;;;;;10.32;3.63;;;;;;;28.75;96.71;102156.56;5216706;28;20029;-72
2023/08/20 08:07:05;;;;;;;7.32;3.15;;;;;;;28.96;91.60;102163.09;5230096;28;20060;-72
2023/08/20 08:09:37;;;;;;;7.63;3.08;;;;;;;29.64;82.68;102160.56;5242646;28;20037;-72
2023/08/20 08:12:08;;;;;;;9.07;3.15;;;;;;;30.00;75.06;102161.59;5236408;28;20021;-72
2023/08/20 08:14:39;;;;;;;8.95;3.03;;;;;;;30.45;69.05;102161.44;5237103;28;20017;-72
2023/08/20 08:17:11;;;;;;;9.25;3.22;;;;;;;30.39;68.98;102168.44;5236618;28;20060;-73
2023/08/20 08:19:42;;;;;;;9.75;3.33;;;;;;;31.28;64.73;102172.66;5245509;28;20032;-72
2023/08/20 08:22:13;;;;;;;8.50;3.10;;;;;;;31.78;59.99;102166.25;5238299;28;20558;-72
2023/08/20 08:24:45;;;;;;;7.28;2.75;;;;;;;32.17;55.76;102155.72;5220053;28;20021;-72
2023/08/20 08:27:16;;;;;;;6.00;2.53;;;;;;;32.53;51.32;102174.53;5245312;28;20098;-73
2023/08/20 08:29:47;;;;;;;8.02;3.08;;;;;;;33.08;49.93;102177.00;5244555;28;20033;-73
2023/08/20 08:32:19;;;;;;;6.82;2.20;;;;;;;33.44;48.51;102157.72;5238061;28;20107;-72
2023/08/20 08:34:50;;;;;;;7.50;3.20;;;;;;;33.43;47.41;102166.88;5251984;28;20044;-72
2023/08/20 08:37:21;;;;;;;4.78;2.20;;;;;;;33.40;44.70;102173.59;5251638;28;20028;-73
2023/08/20 08:39:53;;;;;;;8.52;2.08;;;;;;;34.30;40.46;102163.97;5252465;28;20020;-72
2023/08/20 08:42:24;;;;;;;5.55;1.73;;;;;;;34.66;38.25;102169.72;5212903;28;20056;-74
2023/08/20 08:44:57;;;;;;;4.68;1.90;;;;;;;34.74;37.24;102177.63;5231446;28;20026;-73
2023/08/20 08:47:29;;;;;;;4.38;1.42;;;;;;;34.93;36.75;102173.03;5231544;28;20029;-73
2023/08/20 08:50:02;;;;;;;5.53;2.08;;;;;;;35.44;35.10;102169.34;5230026;28;20032;-74
2023/08/20 08:52:33;;;;;;;8.32;2.47;;;;;;;35.40;32.57;102173.59;5214110;28;20033;-73
2023/08/20 08:55:08;;;;;;;3.95;1.70;;;;;;;35.50;33.91;102175.78;5230661;28;20079;-73
2023/08/20 08:57:39;;;;;;;4.22;1.52;;;;;;;35.79;33.33;102163.25;5213491;28;20022;-73
2023/08/20 09:00:11;;;;;;;3.63;1.47;;;;;;;36.32;31.98;102181.78;5213357;28;20865;-73
2023/08/20 09:02:43;;;;;;;3.53;1.77;;;;;;;36.69;30.75;102178.81;5231688;28;20049;-73
2023/08/20 09:05:14;;;;;;;3.60;1.40;;;;;;;36.43;31.13;102182.84;5220533;28;20061;-74
2023/08/20 09:07:45;;;;;;;4.63;1.63;;;;;;;37.17;29.86;102175.22;5228279;28;20041;-73
2023/08/20 09:10:18;;;;;;;5.43;2.00;;;;;;;37.38;29.19;102179.25;5231252;28;20038;-73
2023/08/20 09:12:49;;;;;;;4.40;1.33;;;;;;;37.63;28.81;102188.97;5213369;28;20986;-72
2023/08/20 09:15:20;;;;;;;4.07;1.20;;;;;;;37.98;28.56;102180.91;5231492;28;20080;-72
2023/08/20 09:17:52;;;;;;;4.37;2.07;;;;;;;38.10;27.10;102181.66;5213417;28;20117;-73
2023/08/20 09:20:34;;;;;;;5.73;1.83;;;;;;;38.57;29.15;102185.16;5241083;28;20357;-73
2023/08/20 09:23:12;;;;;;;5.18;1.58;;;;;;;38.81;28.18;102174.00;5231556;28;20032;-72
2023/08/20 09:25:45;;;;;;;7.85;1.85;;;;;;;38.36;26.47;102179.38;5235199;28;20049;-72
2023/08/20 09:28:16;;;;;;;5.55;1.70;;;;;;;38.44;26.52;102180.00;5234508;28;20028;-73
2023/08/20 09:30:58;;;;;;;4.30;1.67;;;;;;;39.16;28.22;102179.34;5234410;28;20021;-73
2023/08/20 09:33:29;;;;;;;4.38;1.42;;;;;;;38.93;24.98;102178.53;5221409;28;20100;-74
2023/08/20 09:36:03;;;;;;;2.67;0.97;;;;;;;37.48;26.69;102188.69;5227785;28;20112;-73
2023/08/20 09:38:38;;;;;;;3.35;1.08;;;;;;;39.31;25.55;102187.78;5253758;28;20092;-74
2023/08/20 09:41:12;;;;;;;13.55;2.03;;;;;;;39.58;25.16;102180.69;5240721;28;20476;-72
2023/08/20 09:43:44;;;;;;;6.25;1.08;;;;;;;39.35;24.86;102190.00;5241123;28;20025;-75
2023/08/20 09:46:16;;;;;;;;;;;;;;;41.53;26.79;102188.00;5235610;28;20384;-72
2023/08/20 09:48:50;;;;;;;2.72;0.88;;;;;;;40.23;23.37;102188.16;5243792;28;19919;-71
2023/08/20 09:51:26;;;;;;;4.47;1.23;;;;;;;40.58;23.94;102182.38;5233819;28;20118;-73
2023/08/20 09:54:12;;;;;;;4.82;1.45;;;;;;;40.63;24.50;102183.25;5221579;28;20680;-72
2023/08/20 09:56:49;;;;;;;2.80;1.10;;;;;;;40.91;22.83;102183.09;5225632;28;20060;-73
2023/08/20 09:59:21;;;;;;;4.10;0.98;;;;;;;39.93;23.13;102186.78;5233448;28;20078;-72
2023/08/20 10:01:54;;;;;;;3.63;1.33;;;;;;;40.81;22.76;102183.06;5224253;28;20041;-74
2023/08/20 10:04:26;;;;;;;2.88;0.80;;;;;;;41.31;22.71;102185.44;5245744;28;20503;-73
2023/08/20 10:06:58;;;;;;;3.38;1.48;;;;;;;41.18;22.07;102181.31;5243668;28;20037;-78
2023/08/20 10:09:30;;;;;;;2.08;0.88;;;;;;;40.34;22.85;102189.03;5250201;28;20055;-83
2023/08/20 10:12:01;;;;;;;2.60;0.93;;;;;;;40.91;21.71;102174.84;5233790;28;20033;-80
2023/08/20 10:14:33;;;;;;;3.67;0.95;;;;;;;41.35;20.97;102186.56;5244915;28;20025;-78
2023/08/20 10:17:08;;;;;;;3.07;0.70;;;;;;;39.82;22.05;102176.84;5221753;28;20026;-77
2023/08/20 10:19:40;;;;;;;3.70;0.90;;;;;;;37.64;24.77;102181.63;5244982;28;20025;-79
2023/08/20 10:22:12;;;;;;;3.17;0.80;;;;;;;39.16;23.88;102173.88;5225598;28;20027;-79
2023/08/20 10:24:52;;;;;;;2.90;1.00;;;;;;;40.73;23.33;102181.63;5204775;28;20030;-76
2023/08/20 10:27:27;;;;;;;4.00;1.05;;;;;;;40.44;22.58;102173.75;5239336;28;20360;-82
2023/08/20 10:30:00;;;;;;;4.38;1.17;;;;;;;40.32;22.40;102177.53;5245283;28;20079;-79
2023/08/20 10:32:57;;;;;;;6.03;1.48;;;;;;;39.97;25.60;102176.13;5243447;28;20414;-81
2023/08/20 10:35:47;;;;;;;3.67;1.10;;;;;;;39.31;24.62;102176.81;5239366;28;20513;-82
2023/08/20 10:38:18;;;;;;;4.30;1.15;;;;;;;38.36;24.73;102184.84;5237939;28;20029;-81
2023/08/20 10:40:57;;;;;;;3.80;1.10;;;;;;;38.67;24.27;102186.34;5248040;28;20197;-83
2023/08/20 10:43:34;;;;;;;3.28;1.38;;;;;;;38.42;23.96;102182.19;5241412;28;20033;-83
2023/08/20 10:46:16;;;;;;;2.42;0.80;;;;;;;36.86;25.30;102175.41;5242074;28;20086;-78
2023/08/20 10:48:52;;;;;;;5.97;0.93;;;;;;;37.90;25.90;102176.66;5221258;28;20044;-76
2023/08/20 10:51:37;;;;;;;2.53;0.85;;;;;;;38.49;24.90;102180.91;5236123;28;20080;-78
2023/08/20 10:54:10;;;;;;;4.82;1.13;;;;;;;38.06;24.35;102180.50;5236424;28;20116;-79
2023/08/20 10:56:55;;;;;;;4.20;1.15;;;;;;;37.87;25.77;102179.88;5218488;28;20419;-75
2023/08/20 10:59:29;;;;;;;3.72;1.25;;;;;;;37.84;23.83;102172.19;5239099;28;20033;-77
2023/08/20 11:02:01;;;;;;;3.35;0.80;;;;;;;37.60;24.77;102178.53;5222684;28;20029;-78
2023/08/20 11:04:32;;;;;;;2.63;0.93;;;;;;;37.21;24.13;102181.88;5219064;28;20040;-80
2023/08/20 11:07:04;;;;;;;5.83;1.00;;;;;;;37.08;24.57;102163.00;5225657;28;20530;-77
2023/08/20 11:09:36;;;;;;;5.23;1.00;;;;;;;38.00;25.09;102189.69;5225105;28;20025;-79
2023/08/20 11:12:07;;;;;;;3.45;1.10;;;;;;;37.94;24.89;102183.28;5238398;28;20037;-78
2023/08/20 11:14:39;;;;;;;7.87;0.83;;;;;;;37.83;23.68;102176.81;5219319;28;20166;-79
2023/08/20 11:17:10;;;;;;;2.70;0.93;;;;;;;36.99;25.24;102177.03;5251272;28;20105;-78
2023/08/20 11:19:41;;;;;;;2.27;0.70;;;;;;;36.99;24.19;102179.75;5249960;28;20027;-79
2023/08/20 11:22:15;;;;;;;3.20;1.00;;;;;;;37.38;24.85;102178.41;5268524;28;20771;-81
2023/08/20 11:24:46;;;;;;;3.17;1.02;;;;;;;36.02;25.56;102178.00;5252209;28;20025;-80
2023/08/20 11:27:18;;;;;;;4.23;1.03;;;;;;;36.39;24.92;102170.75;5238115;28;20090;-80
2023/08/20 11:29:49;;;;;;;8.83;1.83;;;;;;;35.70;28.11;102176.34;5253163;28;20063;-81
2023/08/20 11:32:20;;;;;;;6.50;1.40;;;;;;;36.52;25.22;102165.06;5261304;28;20468;-78
2023/08/20 11:34:52;;;;;;;4.90;0.87;;;;;;;36.19;27.32;102160.97;5245716;28;20120;-80
2023/08/20 11:37:23;;;;;;;4.72;1.40;;;;;;;35.91;27.14;102165.16;5252627;28;20131;-80
2023/08/20 11:39:55;;;;;;;3.47;0.90;;;;;;;36.00;27.39;102165.66;5253379;28;20174;-79
2023/08/20 11:42:26;;;;;;;3.97;1.15;;;;;;;35.94;26.60;102162.81;5247319;28;20021;-80
2023/08/20 11:44:57;;;;;;;6.65;1.50;;;;;;;35.19;29.67;102153.91;5232758;28;20039;-81